createdAt,value
2018-03-20T00:00:58.196Z,-2.70
2018-03-20T00:03:30.723Z,-2.50
2018-03-20T00:06:04.714Z,-2.70
2018-03-20T00:08:38.085Z,-2.50
2018-03-20T00:11:10.903Z,-2.70
2018-03-20T00:13:44.311Z,-2.60
2018-03-20T00:16:17.656Z,-2.70
2018-03-20T00:18:51.299Z,-2.70
2018-03-20T00:21:24.055Z,-2.60
2018-03-20T00:23:57.423Z,-2.60
2018-03-20T00:26:30.774Z,-2.70
2018-03-20T00:29:03.966Z,-2.60
2018-03-20T00:31:36.547Z,-2.60
2018-03-20T00:34:08.902Z,-2.60
2018-03-20T00:36:41.661Z,-2.60
2018-03-20T00:39:14.999Z,-2.70
2018-03-20T00:41:48.667Z,-2.50
2018-03-20T00:44:21.155Z,-2.60
2018-03-20T00:46:55.331Z,-2.60
2018-03-20T00:49:27.955Z,-2.70
2018-03-20T00:52:00.500Z,-2.70
2018-03-20T00:54:33.071Z,-2.50
2018-03-20T00:57:05.539Z,-2.40
2018-03-20T00:59:38.873Z,-2.60
2018-03-20T01:02:12.287Z,-2.60
2018-03-20T01:04:45.860Z,-2.70
2018-03-20T01:07:19.343Z,-2.50
2018-03-20T01:09:52.334Z,-2.80
2018-03-20T01:12:25.712Z,-2.50
2018-03-20T01:14:58.407Z,-2.70
2018-03-20T01:17:30.888Z,-2.70
2018-03-20T01:20:04.327Z,-2.70
2018-03-20T01:22:37.894Z,-2.40
2018-03-20T01:25:10.718Z,-2.60
2018-03-20T01:27:43.793Z,-2.50
2018-03-20T01:30:16.677Z,-2.50
2018-03-20T01:32:49.087Z,-2.50
2018-03-20T01:35:21.551Z,-2.60
2018-03-20T01:37:54.696Z,-2.50
2018-03-20T01:40:27.347Z,-2.30
2018-03-20T01:42:59.802Z,-2.40
2018-03-20T01:45:32.301Z,-2.40
2018-03-20T01:48:04.890Z,-2.50
2018-03-20T01:50:37.566Z,-2.30
2018-03-20T01:53:18.203Z,-2.10
2018-03-20T01:55:50.676Z,-2.30
2018-03-20T01:58:23.370Z,-2.30
2018-03-20T02:00:56.825Z,-2.10
2018-03-20T02:03:29.391Z,-2.10
2018-03-20T02:06:02.632Z,-2.40
2018-03-20T02:08:35.234Z,-2.30
2018-03-20T02:11:08.661Z,-2.50
2018-03-20T02:13:41.069Z,-2.20
2018-03-20T02:16:14.362Z,-2.20
2018-03-20T02:18:47.150Z,-2.30
2018-03-20T02:21:19.957Z,-2.10
2018-03-20T02:23:52.618Z,-2.30
2018-03-20T02:26:25.360Z,-2.20
2018-03-20T02:28:58.457Z,-2.00
2018-03-20T02:31:31.319Z,-2.20
2018-03-20T02:34:03.663Z,-2.20
2018-03-20T02:36:36.195Z,-1.90
2018-03-20T02:39:08.717Z,-1.90
2018-03-20T02:41:41.413Z,-2.10
2018-03-20T02:44:14.604Z,-2.00
2018-03-20T02:46:48.065Z,-2.20
2018-03-20T02:49:21.135Z,-1.90
2018-03-20T02:51:54.137Z,-2.10
2018-03-20T02:54:26.567Z,-2.10
2018-03-20T02:56:59.016Z,-2.00
2018-03-20T02:59:31.710Z,-1.90
2018-03-20T03:02:04.191Z,-2.00
2018-03-20T03:04:38.355Z,-2.10
2018-03-20T03:07:11.040Z,-2.30
2018-03-20T03:09:44.374Z,-2.30
2018-03-20T03:12:17.756Z,-2.20
2018-03-20T03:14:50.290Z,-2.30
2018-03-20T03:17:23.558Z,-2.10
2018-03-20T03:19:56.998Z,-2.20
2018-03-20T03:22:29.608Z,-2.10
2018-03-20T03:25:03.328Z,-2.20
2018-03-20T03:27:36.247Z,-2.40
2018-03-20T03:30:08.702Z,-2.30
2018-03-20T03:32:41.263Z,-2.40
2018-03-20T03:35:13.842Z,-2.20
2018-03-20T03:37:46.972Z,-2.30
2018-03-20T03:40:19.837Z,-2.20
2018-03-20T03:42:53.001Z,-2.30
2018-03-20T03:45:26.344Z,-2.40
2018-03-20T03:47:59.240Z,-2.20
2018-03-20T03:50:32.405Z,-2.40
2018-03-20T03:53:05.833Z,-2.30
2018-03-20T03:55:38.596Z,-2.40
2018-03-20T03:58:11.184Z,-2.30
2018-03-20T04:00:44.534Z,-2.40
2018-03-20T04:03:18.663Z,-2.30
2018-03-20T04:05:51.582Z,-2.50
2018-03-20T04:08:25.452Z,-2.30
2018-03-20T04:10:58.228Z,-2.50
2018-03-20T04:13:31.578Z,-2.60
2018-03-20T04:16:04.159Z,-2.60
2018-03-20T04:18:36.816Z,-2.40
2018-03-20T04:21:10.062Z,-2.40
2018-03-20T04:23:42.828Z,-2.50
2018-03-20T04:26:16.192Z,-2.40
2018-03-20T04:28:49.370Z,-2.30
2018-03-20T04:31:22.714Z,-2.50
2018-03-20T04:33:55.633Z,-2.40
2018-03-20T04:36:28.989Z,-2.50
2018-03-20T04:39:01.759Z,-2.60
2018-03-20T04:41:34.317Z,-2.40
2018-03-20T04:44:07.102Z,-2.50
2018-03-20T04:46:39.526Z,-2.40
2018-03-20T04:49:12.069Z,-2.40
2018-03-20T04:51:45.391Z,-2.50
2018-03-20T04:54:18.805Z,-2.50
2018-03-20T04:56:51.761Z,-2.60
2018-03-20T04:59:24.530Z,-2.60
2018-03-20T05:01:56.980Z,-2.40
2018-03-20T05:04:29.725Z,-2.40
2018-03-20T05:07:02.961Z,-2.40
2018-03-20T05:09:35.532Z,-2.50
2018-03-20T05:12:08.949Z,-2.50
2018-03-20T05:14:41.449Z,-2.50
2018-03-20T05:17:13.887Z,-2.50
2018-03-20T05:20:04.467Z,-2.30
2018-03-20T05:22:43.057Z,-2.50
2018-03-20T05:25:15.604Z,-2.50
2018-03-20T05:27:48.942Z,-2.60
2018-03-20T05:30:21.435Z,-2.70
2018-03-20T05:32:54.651Z,-2.40
2018-03-20T05:35:27.072Z,-2.50
2018-03-20T05:38:01.239Z,-2.30
2018-03-20T05:40:33.974Z,-2.50
2018-03-20T05:43:06.447Z,-2.40
2018-03-20T05:45:39.639Z,-2.30
2018-03-20T06:03:20.886Z,-1.90
2018-03-20T06:05:53.968Z,-2.20
2018-03-20T06:08:26.626Z,-2.30
2018-03-20T06:10:59.941Z,-2.20
2018-03-20T06:13:33.267Z,-2.20
2018-03-20T06:16:05.745Z,-2.00
2018-03-20T06:18:39.813Z,-1.90
2018-03-20T06:21:12.426Z,-2.00
2018-03-20T06:23:44.928Z,-2.00
2018-03-20T06:26:17.348Z,-1.90
2018-03-20T06:28:50.964Z,-1.80
2018-03-20T06:31:24.085Z,-1.70
2018-03-20T06:33:57.433Z,-1.70
2018-03-20T06:36:29.827Z,-1.80
2018-03-20T06:39:03.252Z,-1.70
2018-03-20T06:41:36.553Z,-1.80
2018-03-20T06:44:09.112Z,-1.80
2018-03-20T06:46:42.319Z,-1.70
2018-03-20T06:49:15.409Z,-1.60
2018-03-20T06:51:48.075Z,-1.70
2018-03-20T06:54:21.426Z,-1.70
2018-03-20T06:56:54.676Z,-1.70
2018-03-20T06:59:27.966Z,-1.50
2018-03-20T07:02:00.643Z,-1.60
2018-03-20T07:04:33.968Z,-1.50
2018-03-20T07:07:07.331Z,-1.60
2018-03-20T07:09:39.790Z,-1.60
2018-03-20T07:12:12.162Z,-1.60
2018-03-20T07:14:45.477Z,-1.60
2018-03-20T07:17:18.732Z,-1.30
2018-03-20T07:19:51.275Z,-1.50
2018-03-20T07:22:23.935Z,-1.40
2018-03-20T07:24:56.367Z,-1.40
2018-03-20T07:27:29.584Z,-1.20
2018-03-20T07:30:03.196Z,-1.40
2018-03-20T07:32:35.695Z,-1.20
2018-03-20T07:35:08.988Z,-1.00
2018-03-20T07:37:41.528Z,-1.30
2018-03-20T07:40:14.092Z,-1.20
2018-03-20T07:42:48.146Z,-1.20
2018-03-20T07:45:20.954Z,-1.00
2018-03-20T07:47:54.435Z,-1.00
2018-03-20T07:50:27.705Z,-0.90
2018-03-20T07:53:01.110Z,-0.80
2018-03-20T07:55:33.608Z,-0.70
2018-03-20T07:58:06.043Z,-0.70
2018-03-20T08:00:38.593Z,-0.70
2018-03-20T08:03:11.894Z,-0.40
2018-03-20T08:05:44.438Z,-0.10
2018-03-20T08:08:17.811Z,0.00
2018-03-20T08:10:50.190Z,0.20
2018-03-20T08:13:22.660Z,0.30
2018-03-20T08:15:55.929Z,0.60
2018-03-20T08:18:28.465Z,0.70
2018-03-20T08:21:01.664Z,0.80
2018-03-20T08:23:34.352Z,0.80
2018-03-20T08:26:07.686Z,1.00
2018-03-20T08:28:41.537Z,1.00
2018-03-20T08:31:14.689Z,1.00
2018-03-20T08:33:48.459Z,1.00
2018-03-20T08:36:21.104Z,1.00
2018-03-20T08:38:53.556Z,1.10
2018-03-20T08:41:27.088Z,1.10
2018-03-20T08:44:00.439Z,1.30
2018-03-20T08:46:33.844Z,1.30
2018-03-20T08:49:06.976Z,1.50
2018-03-20T08:51:39.717Z,1.50
2018-03-20T08:54:12.115Z,1.70
2018-03-20T08:56:45.449Z,1.90
2018-03-20T08:59:18.226Z,1.90
2018-03-20T09:01:51.631Z,2.00
2018-03-20T09:04:24.021Z,2.00
2018-03-20T09:06:56.555Z,1.90
2018-03-20T09:09:29.840Z,1.90
2018-03-20T09:12:03.249Z,1.80
2018-03-20T09:14:35.665Z,1.70
2018-03-20T09:17:09.857Z,1.70
2018-03-20T09:19:42.292Z,1.80
2018-03-20T09:22:14.902Z,1.80
2018-03-20T09:24:48.091Z,1.80
2018-03-20T09:27:21.494Z,1.80
2018-03-20T09:29:54.699Z,1.70
2018-03-20T09:32:28.717Z,1.80
2018-03-20T09:35:01.236Z,1.80
2018-03-20T09:37:35.271Z,2.00
2018-03-20T09:40:30.893Z,1.60
2018-03-20T09:43:03.431Z,2.00
2018-03-20T09:45:36.746Z,2.00
2018-03-20T09:48:10.862Z,2.20
2018-03-20T09:50:43.254Z,2.20
2018-03-20T09:53:17.383Z,2.60
2018-03-20T09:55:50.612Z,2.90
2018-03-20T09:58:23.121Z,2.80
2018-03-20T10:00:56.485Z,3.10
2018-03-20T10:03:29.803Z,3.40
2018-03-20T10:06:03.077Z,3.60
2018-03-20T10:08:35.671Z,3.60
2018-03-20T10:11:08.249Z,3.50
2018-03-20T10:13:42.308Z,3.30
2018-03-20T10:16:15.677Z,3.30
2018-03-20T10:18:48.447Z,3.30
2018-03-20T10:21:20.857Z,3.40
2018-03-20T10:23:53.957Z,3.40
2018-03-20T10:26:26.723Z,3.40
2018-03-20T10:28:59.992Z,3.50
2018-03-20T10:31:32.411Z,3.60
2018-03-20T10:34:04.877Z,3.70
2018-03-20T10:36:39.217Z,3.90
2018-03-20T10:39:11.738Z,4.30
2018-03-20T10:41:45.842Z,5.30
2018-03-20T10:44:19.308Z,5.90
2018-03-20T10:46:51.934Z,5.80
2018-03-20T10:49:24.506Z,6.30
2018-03-20T10:51:57.687Z,6.30
2018-03-20T10:54:30.092Z,6.10
2018-03-20T10:57:03.370Z,5.90
2018-03-20T10:59:35.744Z,5.50
2018-03-20T11:02:16.109Z,5.30
2018-03-20T11:04:48.765Z,5.10
2018-03-20T11:07:22.012Z,4.80
2018-03-20T11:09:54.526Z,4.50
2018-03-20T11:12:28.154Z,4.40
2018-03-20T11:15:02.165Z,4.60
2018-03-20T11:17:34.927Z,4.60
2018-03-20T11:20:08.286Z,4.60
2018-03-20T11:22:41.588Z,4.70
2018-03-20T11:25:14.971Z,4.80
2018-03-20T11:27:48.333Z,4.80
2018-03-20T11:30:20.746Z,4.90
2018-03-20T11:32:54.155Z,5.00
2018-03-20T11:35:26.648Z,5.10
2018-03-20T11:37:59.958Z,5.10
2018-03-20T11:40:32.966Z,5.00
2018-03-20T11:43:06.508Z,4.90
2018-03-20T11:45:39.795Z,4.80
2018-03-20T11:48:12.525Z,4.80
2018-03-20T11:50:44.935Z,4.80
2018-03-20T11:53:19.054Z,4.40
2018-03-20T11:55:52.621Z,4.30
2018-03-20T11:58:25.333Z,4.30
2018-03-20T12:00:59.010Z,4.20
2018-03-20T12:03:32.013Z,4.10
2018-03-20T12:06:04.635Z,4.00
2018-03-20T12:08:50.047Z,3.90
2018-03-20T12:11:22.665Z,4.00
2018-03-20T12:13:56.008Z,4.00
2018-03-20T12:16:30.200Z,4.10
2018-03-20T12:19:02.739Z,4.00
2018-03-20T12:21:35.098Z,4.10
2018-03-20T12:24:08.415Z,4.00
2018-03-20T12:26:42.444Z,4.00
2018-03-20T12:29:15.709Z,3.80
2018-03-20T12:31:48.550Z,3.80
2018-03-20T12:34:21.929Z,3.70
2018-03-20T12:36:54.324Z,3.60
2018-03-20T12:39:26.976Z,3.50
2018-03-20T12:42:00.391Z,3.50
2018-03-20T12:44:33.642Z,3.70
2018-03-20T12:47:06.379Z,3.80
2018-03-20T12:49:38.884Z,3.80
2018-03-20T12:52:11.375Z,3.90
2018-03-20T12:54:43.849Z,3.90
2018-03-20T12:57:17.091Z,3.90
2018-03-20T12:59:49.378Z,3.90
2018-03-20T13:02:22.747Z,4.00
2018-03-20T13:04:56.742Z,3.80
2018-03-20T13:07:29.519Z,3.80
2018-03-20T13:10:02.635Z,3.60
2018-03-20T13:12:35.291Z,3.60
2018-03-20T13:15:07.715Z,3.50
2018-03-20T13:17:40.111Z,3.30
2018-03-20T13:20:12.587Z,3.20
2018-03-20T13:22:46.062Z,3.10
2018-03-20T13:25:19.326Z,3.00
2018-03-20T13:27:52.610Z,3.00
2018-03-20T13:30:26.700Z,2.90
2018-03-20T13:32:59.302Z,2.90
2018-03-20T13:35:31.675Z,2.90
2018-03-20T13:38:04.392Z,2.90
2018-03-20T13:40:37.616Z,2.90
2018-03-20T13:43:09.999Z,2.90
2018-03-20T13:45:42.529Z,2.90
2018-03-20T13:48:15.712Z,3.00
2018-03-20T13:50:52.603Z,3.00
2018-03-20T13:53:22.800Z,3.00
2018-03-20T13:55:56.172Z,3.00
2018-03-20T13:58:28.707Z,3.10
2018-03-20T14:01:01.184Z,3.00
2018-03-20T14:03:33.683Z,3.10
2018-03-20T14:06:06.259Z,3.10
2018-03-20T14:08:39.407Z,3.10
2018-03-20T14:11:11.954Z,3.00
2018-03-20T14:13:44.347Z,3.10
2018-03-20T14:16:16.821Z,3.20
2018-03-20T14:18:50.887Z,3.30
2018-03-20T14:21:23.391Z,3.30
2018-03-20T14:23:56.683Z,3.50
2018-03-20T14:26:29.535Z,3.40
2018-03-20T14:29:01.994Z,3.50
2018-03-20T14:31:35.379Z,3.50
2018-03-20T14:34:07.851Z,3.50
2018-03-20T14:36:41.087Z,3.50
2018-03-20T14:39:14.325Z,3.50
2018-03-20T14:41:47.683Z,3.50
2018-03-20T14:44:20.169Z,3.60
2018-03-20T14:46:53.317Z,3.50
2018-03-20T14:49:26.028Z,3.50
2018-03-20T14:51:58.478Z,3.40
2018-03-20T14:54:31.059Z,3.40
2018-03-20T14:57:04.235Z,3.40
2018-03-20T14:59:37.135Z,3.30
2018-03-20T15:02:09.612Z,3.30
2018-03-20T15:04:41.990Z,3.30
2018-03-20T15:07:14.430Z,3.30
2018-03-20T15:09:47.615Z,3.30
2018-03-20T15:12:20.207Z,3.30
2018-03-20T15:14:52.633Z,3.30
2018-03-20T15:17:25.950Z,3.30
2018-03-20T15:19:59.192Z,3.30
2018-03-20T15:22:32.449Z,3.30
2018-03-20T15:25:05.666Z,3.20
2018-03-20T15:27:38.202Z,3.20
2018-03-20T15:30:11.652Z,3.20
2018-03-20T15:32:44.146Z,3.20
2018-03-20T15:35:16.569Z,3.20
2018-03-20T15:37:49.043Z,3.30
2018-03-20T15:40:22.332Z,3.20
2018-03-20T15:42:55.071Z,3.20
2018-03-20T15:45:27.711Z,3.20
2018-03-20T15:48:00.076Z,3.10
2018-03-20T15:50:32.530Z,3.00
2018-03-20T15:53:05.830Z,3.00
2018-03-20T15:55:38.370Z,3.00
2018-03-20T15:58:10.846Z,2.90
2018-03-20T16:00:43.236Z,2.90
2018-03-20T16:03:15.582Z,2.90
2018-03-20T16:05:48.082Z,2.80
2018-03-20T16:08:20.529Z,2.70
2018-03-20T16:10:53.682Z,2.60
2018-03-20T16:13:26.398Z,2.60
2018-03-20T16:15:59.618Z,2.50
2018-03-20T16:18:32.100Z,2.50
2018-03-20T16:21:04.523Z,2.50
2018-03-20T16:23:37.764Z,2.40
2018-03-20T16:26:10.232Z,2.40
2018-03-20T16:28:44.381Z,2.20
2018-03-20T16:31:17.703Z,2.10
2018-03-20T16:33:50.271Z,2.10
2018-03-20T16:36:22.711Z,2.10
2018-03-20T16:38:55.982Z,2.10
2018-03-20T16:41:28.415Z,2.00
2018-03-20T16:44:00.948Z,2.00
2018-03-20T16:46:33.341Z,2.00
2018-03-20T16:49:06.568Z,2.00
2018-03-20T16:51:39.126Z,1.90
2018-03-20T16:54:12.079Z,1.90
2018-03-20T16:56:45.313Z,1.90
2018-03-20T16:59:19.264Z,1.80
2018-03-20T17:01:52.091Z,1.70
2018-03-20T17:04:25.999Z,1.60
2018-03-20T17:06:58.630Z,1.70
2018-03-20T17:09:31.124Z,1.60
2018-03-20T17:12:04.407Z,1.50
2018-03-20T17:14:36.940Z,1.60
2018-03-20T17:17:09.451Z,1.40
2018-03-20T17:19:41.913Z,1.50
2018-03-20T17:22:15.266Z,1.00
2018-03-20T17:24:48.430Z,1.30
2018-03-20T17:27:21.021Z,1.30
2018-03-20T17:29:53.405Z,1.30
2018-03-20T17:32:25.870Z,1.50
2018-03-20T17:34:58.251Z,1.20
2018-03-20T17:37:31.534Z,1.10
2018-03-20T17:40:04.872Z,1.10
2018-03-20T17:42:37.695Z,1.20
2018-03-20T17:45:10.186Z,1.10
2018-03-20T17:47:43.487Z,1.20
2018-03-20T17:50:16.915Z,1.10
2018-03-20T17:52:50.265Z,1.20
2018-03-20T17:55:24.404Z,1.10
2018-03-20T17:57:57.714Z,0.90
2018-03-20T18:00:31.568Z,0.80
2018-03-20T18:03:04.419Z,0.90
2018-03-20T18:05:37.665Z,0.90
2018-03-20T18:08:11.176Z,0.80
2018-03-20T18:10:44.535Z,0.90
2018-03-20T18:13:17.688Z,0.70
2018-03-20T18:15:51.037Z,0.90
2018-03-20T18:18:24.339Z,0.90
2018-03-20T18:20:56.795Z,0.50
2018-03-20T18:23:30.083Z,0.70
2018-03-20T18:26:03.581Z,0.80
2018-03-20T18:28:36.632Z,0.50
2018-03-20T18:31:10.610Z,0.60
2018-03-20T18:33:43.306Z,0.70
2018-03-20T18:36:16.740Z,0.50
2018-03-20T18:38:50.055Z,0.50
2018-03-20T18:41:24.481Z,0.40
2018-03-20T18:43:58.705Z,0.40
2018-03-20T18:46:32.186Z,0.50
2018-03-20T18:49:05.324Z,0.60
2018-03-20T18:51:38.891Z,0.40
2018-03-20T18:54:11.578Z,0.50
2018-03-20T18:56:44.068Z,0.30
2018-03-20T18:59:17.398Z,0.30
2018-03-20T19:01:51.311Z,0.50
2018-03-20T19:04:24.092Z,0.40
2018-03-20T19:06:56.540Z,0.50
2018-03-20T19:09:28.947Z,0.70
2018-03-20T19:12:02.239Z,0.60
2018-03-20T19:14:35.629Z,0.50
2018-03-20T19:17:08.001Z,0.60
2018-03-20T19:19:41.523Z,0.70
2018-03-20T19:22:14.715Z,0.60
2018-03-20T19:24:48.943Z,0.50
2018-03-20T19:27:22.254Z,0.50
2018-03-20T19:29:54.978Z,0.70
2018-03-20T19:32:28.154Z,0.70
2018-03-20T19:35:00.931Z,0.70
2018-03-20T19:37:33.512Z,0.70
2018-03-20T19:40:06.813Z,0.70
2018-03-20T19:42:41.803Z,0.80
2018-03-20T19:45:14.357Z,0.90
2018-03-20T19:47:47.770Z,0.90
2018-03-20T19:50:20.711Z,0.90
2018-03-20T19:52:53.904Z,0.80
2018-03-20T19:55:27.219Z,0.90
2018-03-20T19:58:00.051Z,0.80
2018-03-20T20:00:33.313Z,0.70
2018-03-20T20:03:05.912Z,0.80
2018-03-20T20:05:38.393Z,0.80
2018-03-20T20:08:11.889Z,0.80
2018-03-20T20:10:45.111Z,0.60
2018-03-20T20:13:18.482Z,0.70
2018-03-20T20:15:51.912Z,0.60
2018-03-20T20:18:26.238Z,0.60
2018-03-20T20:20:58.789Z,0.70
2018-03-20T20:23:32.175Z,0.60
2018-03-20T20:26:04.674Z,0.70
2018-03-20T20:28:37.988Z,0.50
2018-03-20T20:31:11.498Z,0.60
2018-03-20T20:33:44.021Z,0.60
2018-03-20T20:36:17.451Z,0.40
2018-03-20T20:38:50.648Z,0.70
2018-03-20T20:41:24.088Z,0.60
2018-03-20T20:43:56.866Z,0.60
2018-03-20T20:46:30.293Z,0.60
2018-03-20T20:49:03.763Z,0.70
2018-03-20T20:51:37.720Z,0.50
2018-03-20T20:54:10.365Z,0.60
2018-03-20T20:56:42.795Z,0.60
2018-03-20T20:59:16.158Z,0.60
2018-03-20T21:01:49.609Z,0.50
2018-03-20T21:04:23.076Z,0.80
2018-03-20T21:06:56.314Z,0.60
2018-03-20T21:09:28.732Z,0.80
2018-03-20T21:12:01.258Z,0.50
2018-03-20T21:14:34.489Z,0.80
2018-03-20T21:17:07.820Z,0.70
2018-03-20T21:19:41.161Z,0.80
2018-03-20T21:22:13.519Z,0.80
2018-03-20T21:24:47.527Z,0.80
2018-03-20T21:27:20.759Z,0.80
2018-03-20T21:29:53.479Z,0.60
2018-03-20T21:32:25.879Z,0.70
2018-03-20T21:34:59.054Z,0.60
2018-03-20T21:37:31.823Z,0.70
2018-03-20T21:40:04.479Z,0.70
2018-03-20T21:42:37.931Z,0.60
2018-03-20T21:45:11.243Z,0.80
2018-03-20T21:47:45.520Z,0.70
2018-03-20T21:50:18.710Z,0.50
2018-03-20T21:52:51.232Z,0.50
2018-03-20T21:55:23.881Z,0.60
2018-03-20T21:57:57.267Z,0.70
2018-03-20T22:00:30.681Z,0.60
2018-03-20T22:03:03.954Z,0.60
2018-03-20T22:05:36.413Z,0.80
2018-03-20T22:08:08.782Z,0.80
2018-03-20T22:10:41.327Z,0.70
2018-03-20T22:13:14.758Z,0.60
2018-03-20T22:15:47.742Z,0.50
2018-03-20T22:18:20.535Z,0.70
2018-03-20T22:20:53.037Z,0.40
2018-03-20T22:23:25.430Z,0.60
2018-03-20T22:25:57.789Z,0.50
2018-03-20T22:28:31.004Z,0.60
2018-03-20T22:31:04.317Z,1.00
2018-03-20T22:33:37.442Z,0.60
2018-03-20T22:36:10.052Z,0.50
2018-03-20T22:38:43.307Z,0.50
2018-03-20T22:41:15.819Z,0.70
2018-03-20T22:43:48.226Z,0.70
2018-03-20T22:46:21.634Z,0.70
2018-03-20T22:48:54.774Z,0.60
2018-03-20T22:51:27.380Z,0.60
2018-03-20T22:53:59.810Z,0.70
2018-03-20T22:56:32.251Z,0.70
2018-03-20T22:59:06.163Z,0.70
2018-03-20T23:01:39.015Z,0.70
2018-03-20T23:04:12.329Z,0.90
2018-03-20T23:06:46.339Z,0.80
2018-03-20T23:09:19.128Z,0.70
2018-03-20T23:11:52.525Z,0.70
2018-03-20T23:14:24.871Z,0.90
2018-03-20T23:16:57.278Z,0.90
2018-03-20T23:19:29.846Z,0.90
2018-03-20T23:22:03.080Z,0.60
2018-03-20T23:24:35.588Z,0.60
2018-03-20T23:27:08.051Z,0.90
2018-03-20T23:29:41.356Z,0.90
2018-03-20T23:32:14.791Z,0.70
2018-03-20T23:34:47.444Z,0.80
2018-03-20T23:37:19.818Z,0.60
2018-03-20T23:39:52.257Z,0.70
2018-03-20T23:42:24.782Z,0.90
2018-03-20T23:44:57.970Z,0.70
2018-03-20T23:47:31.315Z,0.80
2018-03-20T23:50:03.992Z,0.70
2018-03-20T23:52:36.522Z,0.80
2018-03-20T23:55:08.943Z,0.90
2018-03-20T23:57:42.095Z,0.80
